sensor_id;sensor_type;location;lat;lon;timestamp;temperature;humidity
3156;DHT22;1588;50.892;7.082;2024-02-23T00:02:05;6.90;99.90
3156;DHT22;1588;50.892;7.082;2024-02-23T00:07:09;6.80;99.90
3156;DHT22;1588;50.892;7.082;2024-02-23T00:12:17;6.60;99.90
3156;DHT22;1588;50.892;7.082;2024-02-23T00:17:20;6.70;99.90
3156;DHT22;1588;50.892;7.082;2024-02-23T00:22:25;6.50;99.90
3156;DHT22;1588;50.892;7.082;2024-02-23T00:27:28;6.50;99.90
3156;DHT22;1588;50.892;7.082;2024-02-23T00:32:37;6.50;99.90
3156;DHT22;1588;50.892;7.082;2024-02-23T00:37:45;6.50;99.90
3156;DHT22;1588;50.892;7.082;2024-02-23T00:42:54;6.50;99.90
3156;DHT22;1588;50.892;7.082;2024-02-23T00:48:06;6.50;99.90
3156;DHT22;1588;50.892;7.082;2024-02-23T00:53:09;6.40;99.90
3156;DHT22;1588;50.892;7.082;2024-02-23T00:58:14;6.30;99.90
3156;DHT22;1588;50.892;7.082;2024-02-23T01:03:20;6.10;99.90
3156;DHT22;1588;50.892;7.082;2024-02-23T01:08:23;6.00;99.90
3156;DHT22;1588;50.892;7.082;2024-02-23T01:13:26;6.00;99.90
3156;DHT22;1588;50.892;7.082;2024-02-23T01:18:30;5.90;99.90
3156;DHT22;1588;50.892;7.082;2024-02-23T01:23:35;5.80;99.90
3156;DHT22;1588;50.892;7.082;2024-02-23T01:28:38;5.70;99.90
3156;DHT22;1588;50.892;7.082;2024-02-23T01:33:48;5.70;99.90
3156;DHT22;1588;50.892;7.082;2024-02-23T01:38:54;5.80;99.90
3156;DHT22;1588;50.892;7.082;2024-02-23T01:43:57;5.80;99.90
3156;DHT22;1588;50.892;7.082;2024-02-23T01:49:01;5.60;99.90
3156;DHT22;1588;50.892;7.082;2024-02-23T01:54:04;5.60;99.90
3156;DHT22;1588;50.892;7.082;2024-02-23T01:59:08;5.50;99.90
3156;DHT22;1588;50.892;7.082;2024-02-23T02:04:14;5.40;99.90
3156;DHT22;1588;50.892;7.082;2024-02-23T02:09:16;5.40;99.90
3156;DHT22;1588;50.892;7.082;2024-02-23T02:14:19;5.30;99.90
3156;DHT22;1588;50.892;7.082;2024-02-23T02:19:23;5.30;99.90
3156;DHT22;1588;50.892;7.082;2024-02-23T02:24:25;5.20;99.90
3156;DHT22;1588;50.892;7.082;2024-02-23T02:29:27;5.20;99.90
3156;DHT22;1588;50.892;7.082;2024-02-23T02:34:31;5.10;99.90
3156;DHT22;1588;50.892;7.082;2024-02-23T02:39:34;5.10;99.90
3156;DHT22;1588;50.892;7.082;2024-02-23T02:44:36;5.00;99.90
3156;DHT22;1588;50.892;7.082;2024-02-23T02:49:41;5.00;99.90
3156;DHT22;1588;50.892;7.082;2024-02-23T02:54:43;5.00;99.90
3156;DHT22;1588;50.892;7.082;2024-02-23T02:59:46;4.90;99.90
3156;DHT22;1588;50.892;7.082;2024-02-23T03:04:49;4.90;99.90
3156;DHT22;1588;50.892;7.082;2024-02-23T03:09:52;4.90;99.90
3156;DHT22;1588;50.892;7.082;2024-02-23T03:14:55;4.90;99.90
3156;DHT22;1588;50.892;7.082;2024-02-23T03:19:59;5.00;99.90
3156;DHT22;1588;50.892;7.082;2024-02-23T03:25:02;4.90;99.90
3156;DHT22;1588;50.892;7.082;2024-02-23T03:30:10;4.90;99.90
3156;DHT22;1588;50.892;7.082;2024-02-23T03:35:14;4.80;99.90
3156;DHT22;1588;50.892;7.082;2024-02-23T03:40:16;5.00;99.90
3156;DHT22;1588;50.892;7.082;2024-02-23T03:45:20;4.90;99.90
3156;DHT22;1588;50.892;7.082;2024-02-23T03:50:26;4.60;99.90
3156;DHT22;1588;50.892;7.082;2024-02-23T03:55:31;4.50;99.90
3156;DHT22;1588;50.892;7.082;2024-02-23T04:00:39;4.50;99.90
3156;DHT22;1588;50.892;7.082;2024-02-23T04:05:42;4.50;99.90
3156;DHT22;1588;50.892;7.082;2024-02-23T04:10:51;4.50;99.90
3156;DHT22;1588;50.892;7.082;2024-02-23T04:15:53;4.50;99.90
3156;DHT22;1588;50.892;7.082;2024-02-23T04:20:57;4.70;99.90
3156;DHT22;1588;50.892;7.082;2024-02-23T04:25:59;4.90;99.90
3156;DHT22;1588;50.892;7.082;2024-02-23T04:31:02;5.00;99.90
3156;DHT22;1588;50.892;7.082;2024-02-23T04:36:06;5.00;99.90
3156;DHT22;1588;50.892;7.082;2024-02-23T04:41:09;5.10;99.90
3156;DHT22;1588;50.892;7.082;2024-02-23T04:46:12;5.20;99.90
3156;DHT22;1588;50.892;7.082;2024-02-23T04:51:16;5.30;99.90
3156;DHT22;1588;50.892;7.082;2024-02-23T04:56:18;5.30;99.90
3156;DHT22;1588;50.892;7.082;2024-02-23T05:01:21;5.20;99.90
3156;DHT22;1588;50.892;7.082;2024-02-23T05:06:25;5.30;99.90
3156;DHT22;1588;50.892;7.082;2024-02-23T05:11:27;5.30;99.90
3156;DHT22;1588;50.892;7.082;2024-02-23T05:16:32;5.30;99.90
3156;DHT22;1588;50.892;7.082;2024-02-23T05:21:36;5.30;99.90
3156;DHT22;1588;50.892;7.082;2024-02-23T05:26:38;5.20;99.90
3156;DHT22;1588;50.892;7.082;2024-02-23T05:31:45;5.10;99.90
3156;DHT22;1588;50.892;7.082;2024-02-23T05:36:49;4.80;99.90
3156;DHT22;1588;50.892;7.082;2024-02-23T05:41:52;4.80;99.90
3156;DHT22;1588;50.892;7.082;2024-02-23T05:46:54;4.70;99.90
3156;DHT22;1588;50.892;7.082;2024-02-23T05:51:58;4.50;99.90
3156;DHT22;1588;50.892;7.082;2024-02-23T05:57:00;4.40;99.90
3156;DHT22;1588;50.892;7.082;2024-02-23T06:02:05;4.40;99.90
3156;DHT22;1588;50.892;7.082;2024-02-23T06:07:09;4.50;99.90
3156;DHT22;1588;50.892;7.082;2024-02-23T06:12:11;4.40;99.90
3156;DHT22;1588;50.892;7.082;2024-02-23T06:17:14;4.30;99.90
3156;DHT22;1588;50.892;7.082;2024-02-23T06:22:17;4.20;99.90
3156;DHT22;1588;50.892;7.082;2024-02-23T06:27:22;4.30;99.90
3156;DHT22;1588;50.892;7.082;2024-02-23T06:32:26;4.30;99.90
3156;DHT22;1588;50.892;7.082;2024-02-23T06:37:30;4.20;99.90
3156;DHT22;1588;50.892;7.082;2024-02-23T06:42:32;4.20;99.90
3156;DHT22;1588;50.892;7.082;2024-02-23T06:47:35;4.10;99.90
3156;DHT22;1588;50.892;7.082;2024-02-23T06:52:39;4.20;99.90
3156;DHT22;1588;50.892;7.082;2024-02-23T06:57:41;4.30;99.90
3156;DHT22;1588;50.892;7.082;2024-02-23T07:02:53;4.50;99.90
3156;DHT22;1588;50.892;7.082;2024-02-23T07:07:57;4.70;99.90
3156;DHT22;1588;50.892;7.082;2024-02-23T07:13:00;4.70;99.90
3156;DHT22;1588;50.892;7.082;2024-02-23T07:18:03;4.80;99.90
3156;DHT22;1588;50.892;7.082;2024-02-23T07:23:07;5.20;99.90
3156;DHT22;1588;50.892;7.082;2024-02-23T07:28:10;5.50;99.90
3156;DHT22;1588;50.892;7.082;2024-02-23T07:33:14;5.80;99.90
3156;DHT22;1588;50.892;7.082;2024-02-23T07:38:19;6.00;99.90
3156;DHT22;1588;50.892;7.082;2024-02-23T07:43:22;6.30;99.90
3156;DHT22;1588;50.892;7.082;2024-02-23T07:48:38;6.40;99.90
3156;DHT22;1588;50.892;7.082;2024-02-23T07:53:46;6.40;99.90
3156;DHT22;1588;50.892;7.082;2024-02-23T07:59:03;6.40;99.90
3156;DHT22;1588;50.892;7.082;2024-02-23T08:04:06;6.80;99.90
3156;DHT22;1588;50.892;7.082;2024-02-23T08:09:10;11.30;99.90
3156;DHT22;1588;50.892;7.082;2024-02-23T08:14:12;14.60;99.90
3156;DHT22;1588;50.892;7.082;2024-02-23T08:19:25;15.70;99.90
3156;DHT22;1588;50.892;7.082;2024-02-23T08:24:29;16.30;99.90
3156;DHT22;1588;50.892;7.082;2024-02-23T08:29:32;13.30;99.90
3156;DHT22;1588;50.892;7.082;2024-02-23T08:34:35;10.80;99.90
3156;DHT22;1588;50.892;7.082;2024-02-23T08:39:38;9.90;99.90
3156;DHT22;1588;50.892;7.082;2024-02-23T08:44:41;9.10;99.90
3156;DHT22;1588;50.892;7.082;2024-02-23T08:49:44;8.50;99.90
3156;DHT22;1588;50.892;7.082;2024-02-23T08:54:48;8.60;99.90
3156;DHT22;1588;50.892;7.082;2024-02-23T08:59:50;8.60;99.90
3156;DHT22;1588;50.892;7.082;2024-02-23T09:04:53;8.30;99.90
3156;DHT22;1588;50.892;7.082;2024-02-23T09:09:57;8.20;99.90
3156;DHT22;1588;50.892;7.082;2024-02-23T09:14:59;8.50;99.90
3156;DHT22;1588;50.892;7.082;2024-02-23T09:20:01;8.30;99.90
3156;DHT22;1588;50.892;7.082;2024-02-23T09:25:06;8.30;99.90
3156;DHT22;1588;50.892;7.082;2024-02-23T09:30:11;8.10;99.90
3156;DHT22;1588;50.892;7.082;2024-02-23T09:35:14;8.10;99.90
3156;DHT22;1588;50.892;7.082;2024-02-23T09:40:18;8.10;99.90
3156;DHT22;1588;50.892;7.082;2024-02-23T09:45:21;8.40;99.90
3156;DHT22;1588;50.892;7.082;2024-02-23T09:50:26;13.30;99.90
3156;DHT22;1588;50.892;7.082;2024-02-23T09:55:35;13.10;99.90
3156;DHT22;1588;50.892;7.082;2024-02-23T10:00:48;11.60;99.90
3156;DHT22;1588;50.892;7.082;2024-02-23T10:05:57;10.70;99.90
3156;DHT22;1588;50.892;7.082;2024-02-23T10:11:06;12.10;99.90
3156;DHT22;1588;50.892;7.082;2024-02-23T10:16:09;11.10;99.90
3156;DHT22;1588;50.892;7.082;2024-02-23T10:21:11;10.40;99.90
3156;DHT22;1588;50.892;7.082;2024-02-23T10:26:18;10.70;99.90
3156;DHT22;1588;50.892;7.082;2024-02-23T10:31:24;10.70;99.90
3156;DHT22;1588;50.892;7.082;2024-02-23T10:36:29;11.50;99.90
3156;DHT22;1588;50.892;7.082;2024-02-23T10:41:36;11.70;99.90
3156;DHT22;1588;50.892;7.082;2024-02-23T10:46:39;11.40;99.90
3156;DHT22;1588;50.892;7.082;2024-02-23T10:51:43;11.10;99.90
3156;DHT22;1588;50.892;7.082;2024-02-23T10:56:50;10.60;99.90
3156;DHT22;1588;50.892;7.082;2024-02-23T11:01:59;10.50;99.90
3156;DHT22;1588;50.892;7.082;2024-02-23T11:07:03;10.00;99.90
3156;DHT22;1588;50.892;7.082;2024-02-23T11:12:28;10.60;99.90
3156;DHT22;1588;50.892;7.082;2024-02-23T11:17:36;10.90;99.90
3156;DHT22;1588;50.892;7.082;2024-02-23T11:22:41;10.90;99.90
3156;DHT22;1588;50.892;7.082;2024-02-23T11:27:49;10.60;99.90
3156;DHT22;1588;50.892;7.082;2024-02-23T11:32:59;10.80;99.90
3156;DHT22;1588;50.892;7.082;2024-02-23T11:38:03;10.50;99.90
3156;DHT22;1588;50.892;7.082;2024-02-23T11:43:19;10.50;99.90
3156;DHT22;1588;50.892;7.082;2024-02-23T11:48:24;10.70;99.90
3156;DHT22;1588;50.892;7.082;2024-02-23T11:53:29;10.30;99.90
3156;DHT22;1588;50.892;7.082;2024-02-23T11:58:34;10.20;99.90
3156;DHT22;1588;50.892;7.082;2024-02-23T12:03:44;10.00;99.90
3156;DHT22;1588;50.892;7.082;2024-02-23T12:08:46;9.90;99.90
3156;DHT22;1588;50.892;7.082;2024-02-23T12:13:52;9.80;99.90
3156;DHT22;1588;50.892;7.082;2024-02-23T12:18:55;9.70;99.90
3156;DHT22;1588;50.892;7.082;2024-02-23T12:23:57;9.60;99.90
3156;DHT22;1588;50.892;7.082;2024-02-23T12:29:05;9.60;99.90
3156;DHT22;1588;50.892;7.082;2024-02-23T12:34:11;9.50;99.90
3156;DHT22;1588;50.892;7.082;2024-02-23T12:39:24;9.40;99.90
3156;DHT22;1588;50.892;7.082;2024-02-23T12:44:37;9.30;99.90
3156;DHT22;1588;50.892;7.082;2024-02-23T12:49:40;9.40;99.90
3156;DHT22;1588;50.892;7.082;2024-02-23T12:54:42;9.40;99.90
3156;DHT22;1588;50.892;7.082;2024-02-23T12:59:46;9.40;99.90
3156;DHT22;1588;50.892;7.082;2024-02-23T13:04:49;9.60;99.90
3156;DHT22;1588;50.892;7.082;2024-02-23T13:09:52;9.80;99.90
3156;DHT22;1588;50.892;7.082;2024-02-23T13:20:26;9.70;99.90
3156;DHT22;1588;50.892;7.082;2024-02-23T13:25:32;9.50;99.90
3156;DHT22;1588;50.892;7.082;2024-02-23T13:30:44;9.70;99.90
3156;DHT22;1588;50.892;7.082;2024-02-23T13:35:47;9.80;99.90
3156;DHT22;1588;50.892;7.082;2024-02-23T13:40:49;10.00;99.90
3156;DHT22;1588;50.892;7.082;2024-02-23T13:45:54;9.70;99.90
3156;DHT22;1588;50.892;7.082;2024-02-23T13:50:58;9.90;99.90
3156;DHT22;1588;50.892;7.082;2024-02-23T13:56:04;10.00;99.90
3156;DHT22;1588;50.892;7.082;2024-02-23T14:01:08;10.00;99.90
3156;DHT22;1588;50.892;7.082;2024-02-23T14:06:10;10.20;99.90
3156;DHT22;1588;50.892;7.082;2024-02-23T14:11:15;10.50;99.90
3156;DHT22;1588;50.892;7.082;2024-02-23T14:16:19;10.20;99.90
3156;DHT22;1588;50.892;7.082;2024-02-23T14:21:22;9.80;99.90
3156;DHT22;1588;50.892;7.082;2024-02-23T14:26:26;9.80;99.90
3156;DHT22;1588;50.892;7.082;2024-02-23T14:31:30;9.90;99.90
3156;DHT22;1588;50.892;7.082;2024-02-23T14:36:36;9.90;99.90
3156;DHT22;1588;50.892;7.082;2024-02-23T14:41:40;9.80;99.90
3156;DHT22;1588;50.892;7.082;2024-02-23T14:46:52;9.70;99.90
3156;DHT22;1588;50.892;7.082;2024-02-23T14:51:55;9.50;99.90
3156;DHT22;1588;50.892;7.082;2024-02-23T14:56:58;9.40;99.90
3156;DHT22;1588;50.892;7.082;2024-02-23T15:02:01;9.50;99.90
3156;DHT22;1588;50.892;7.082;2024-02-23T15:07:06;9.40;99.90
3156;DHT22;1588;50.892;7.082;2024-02-23T15:12:30;9.50;99.90
3156;DHT22;1588;50.892;7.082;2024-02-23T15:17:34;9.50;99.90
3156;DHT22;1588;50.892;7.082;2024-02-23T15:22:39;9.60;99.90
3156;DHT22;1588;50.892;7.082;2024-02-23T15:27:43;9.50;99.90
3156;DHT22;1588;50.892;7.082;2024-02-23T15:32:57;9.50;99.90
3156;DHT22;1588;50.892;7.082;2024-02-23T15:38:02;9.40;99.90
3156;DHT22;1588;50.892;7.082;2024-02-23T15:43:05;9.40;99.90
3156;DHT22;1588;50.892;7.082;2024-02-23T15:48:09;9.50;99.90
3156;DHT22;1588;50.892;7.082;2024-02-23T15:53:14;9.50;99.90
3156;DHT22;1588;50.892;7.082;2024-02-23T15:58:17;9.30;99.90
3156;DHT22;1588;50.892;7.082;2024-02-23T16:03:22;9.20;99.90
3156;DHT22;1588;50.892;7.082;2024-02-23T16:08:39;9.10;99.90
3156;DHT22;1588;50.892;7.082;2024-02-23T16:13:42;9.10;99.90
3156;DHT22;1588;50.892;7.082;2024-02-23T16:18:46;9.10;99.90
3156;DHT22;1588;50.892;7.082;2024-02-23T16:23:48;9.10;99.90
3156;DHT22;1588;50.892;7.082;2024-02-23T16:28:50;9.00;99.90
3156;DHT22;1588;50.892;7.082;2024-02-23T16:33:54;8.90;99.90
3156;DHT22;1588;50.892;7.082;2024-02-23T16:38:56;8.80;99.90
3156;DHT22;1588;50.892;7.082;2024-02-23T16:43:59;8.60;99.90
3156;DHT22;1588;50.892;7.082;2024-02-23T16:49:03;8.50;99.90
3156;DHT22;1588;50.892;7.082;2024-02-23T16:54:09;8.50;99.90
3156;DHT22;1588;50.892;7.082;2024-02-23T16:59:15;8.40;99.90
3156;DHT22;1588;50.892;7.082;2024-02-23T17:04:23;8.30;99.90
3156;DHT22;1588;50.892;7.082;2024-02-23T17:09:27;8.30;99.90
3156;DHT22;1588;50.892;7.082;2024-02-23T17:14:32;8.20;99.90
3156;DHT22;1588;50.892;7.082;2024-02-23T17:19:37;8.00;99.90
3156;DHT22;1588;50.892;7.082;2024-02-23T17:24:40;7.90;99.90
3156;DHT22;1588;50.892;7.082;2024-02-23T17:29:42;7.90;99.90
3156;DHT22;1588;50.892;7.082;2024-02-23T17:34:49;7.90;99.90
3156;DHT22;1588;50.892;7.082;2024-02-23T17:45:04;7.80;99.90
3156;DHT22;1588;50.892;7.082;2024-02-23T17:50:09;7.90;99.90
3156;DHT22;1588;50.892;7.082;2024-02-23T17:55:20;7.90;99.90
3156;DHT22;1588;50.892;7.082;2024-02-23T18:00:34;8.00;99.90
3156;DHT22;1588;50.892;7.082;2024-02-23T18:05:38;8.10;99.90
3156;DHT22;1588;50.892;7.082;2024-02-23T18:10:41;8.00;99.90
3156;DHT22;1588;50.892;7.082;2024-02-23T18:15:43;7.90;99.90
3156;DHT22;1588;50.892;7.082;2024-02-23T18:20:50;7.80;99.90
3156;DHT22;1588;50.892;7.082;2024-02-23T18:25:52;7.60;99.90
3156;DHT22;1588;50.892;7.082;2024-02-23T18:30:54;7.50;99.90
3156;DHT22;1588;50.892;7.082;2024-02-23T18:35:58;7.50;99.90
3156;DHT22;1588;50.892;7.082;2024-02-23T18:41:00;7.40;99.90
3156;DHT22;1588;50.892;7.082;2024-02-23T18:46:05;7.40;99.90
3156;DHT22;1588;50.892;7.082;2024-02-23T18:51:08;7.40;99.90
3156;DHT22;1588;50.892;7.082;2024-02-23T18:56:11;7.40;99.90
3156;DHT22;1588;50.892;7.082;2024-02-23T19:01:20;7.40;99.90
3156;DHT22;1588;50.892;7.082;2024-02-23T19:06:33;7.50;99.90
3156;DHT22;1588;50.892;7.082;2024-02-23T19:11:36;7.60;99.90
3156;DHT22;1588;50.892;7.082;2024-02-23T19:16:38;7.60;99.90
3156;DHT22;1588;50.892;7.082;2024-02-23T19:21:42;7.50;99.90
3156;DHT22;1588;50.892;7.082;2024-02-23T19:26:45;7.40;99.90
3156;DHT22;1588;50.892;7.082;2024-02-23T19:31:49;7.40;99.90
3156;DHT22;1588;50.892;7.082;2024-02-23T19:36:53;7.30;99.90
3156;DHT22;1588;50.892;7.082;2024-02-23T19:41:55;7.30;99.90
3156;DHT22;1588;50.892;7.082;2024-02-23T19:46:57;7.20;99.90
3156;DHT22;1588;50.892;7.082;2024-02-23T19:52:01;7.10;99.90
3156;DHT22;1588;50.892;7.082;2024-02-23T19:57:05;7.00;99.90
3156;DHT22;1588;50.892;7.082;2024-02-23T20:02:07;6.90;99.90
3156;DHT22;1588;50.892;7.082;2024-02-23T20:07:26;6.90;99.90
3156;DHT22;1588;50.892;7.082;2024-02-23T20:12:40;6.90;99.90
3156;DHT22;1588;50.892;7.082;2024-02-23T20:17:42;6.90;99.90
3156;DHT22;1588;50.892;7.082;2024-02-23T20:23:09;6.90;99.90
3156;DHT22;1588;50.892;7.082;2024-02-23T20:28:11;6.70;99.90
3156;DHT22;1588;50.892;7.082;2024-02-23T20:33:14;6.60;99.90
3156;DHT22;1588;50.892;7.082;2024-02-23T20:38:17;6.60;99.90
3156;DHT22;1588;50.892;7.082;2024-02-23T20:43:20;6.60;99.90
3156;DHT22;1588;50.892;7.082;2024-02-23T20:48:24;6.60;99.90
3156;DHT22;1588;50.892;7.082;2024-02-23T20:53:27;6.70;99.90
3156;DHT22;1588;50.892;7.082;2024-02-23T20:58:30;6.70;99.90
3156;DHT22;1588;50.892;7.082;2024-02-23T21:03:33;6.70;99.90
3156;DHT22;1588;50.892;7.082;2024-02-23T21:08:38;6.70;99.90
3156;DHT22;1588;50.892;7.082;2024-02-23T21:13:47;6.70;99.90
3156;DHT22;1588;50.892;7.082;2024-02-23T21:18:49;6.70;99.90
3156;DHT22;1588;50.892;7.082;2024-02-23T21:23:53;6.60;99.90
3156;DHT22;1588;50.892;7.082;2024-02-23T21:28:56;6.50;99.90
3156;DHT22;1588;50.892;7.082;2024-02-23T21:34:03;6.40;99.90
3156;DHT22;1588;50.892;7.082;2024-02-23T21:39:08;6.50;99.90
3156;DHT22;1588;50.892;7.082;2024-02-23T21:44:15;6.30;99.90
3156;DHT22;1588;50.892;7.082;2024-02-23T21:49:17;6.30;99.90
3156;DHT22;1588;50.892;7.082;2024-02-23T21:54:21;6.30;99.90
3156;DHT22;1588;50.892;7.082;2024-02-23T21:59:25;6.30;99.90
3156;DHT22;1588;50.892;7.082;2024-02-23T22:04:28;6.30;99.90
3156;DHT22;1588;50.892;7.082;2024-02-23T22:09:31;6.40;99.90
3156;DHT22;1588;50.892;7.082;2024-02-23T22:14:34;6.50;99.90
3156;DHT22;1588;50.892;7.082;2024-02-23T22:19:37;6.50;99.90
3156;DHT22;1588;50.892;7.082;2024-02-23T22:24:40;6.50;99.90
3156;DHT22;1588;50.892;7.082;2024-02-23T22:29:43;6.40;99.90
3156;DHT22;1588;50.892;7.082;2024-02-23T22:34:46;6.30;99.90
3156;DHT22;1588;50.892;7.082;2024-02-23T22:39:50;6.20;99.90
3156;DHT22;1588;50.892;7.082;2024-02-23T22:44:53;6.20;99.90
3156;DHT22;1588;50.892;7.082;2024-02-23T22:49:55;6.10;99.90
3156;DHT22;1588;50.892;7.082;2024-02-23T22:55:12;6.10;99.90
3156;DHT22;1588;50.892;7.082;2024-02-23T23:00:15;6.10;99.90
3156;DHT22;1588;50.892;7.082;2024-02-23T23:05:18;6.20;99.90
3156;DHT22;1588;50.892;7.082;2024-02-23T23:10:24;6.20;99.90
3156;DHT22;1588;50.892;7.082;2024-02-23T23:15:27;6.20;99.90
3156;DHT22;1588;50.892;7.082;2024-02-23T23:20:29;6.20;99.90
3156;DHT22;1588;50.892;7.082;2024-02-23T23:25:33;6.30;99.90
3156;DHT22;1588;50.892;7.082;2024-02-23T23:30:36;6.20;99.90
3156;DHT22;1588;50.892;7.082;2024-02-23T23:35:38;6.10;99.90
3156;DHT22;1588;50.892;7.082;2024-02-23T23:40:42;6.00;99.90
3156;DHT22;1588;50.892;7.082;2024-02-23T23:45:44;5.90;99.90
3156;DHT22;1588;50.892;7.082;2024-02-23T23:50:47;5.80;99.90
3156;DHT22;1588;50.892;7.082;2024-02-23T23:55:50;5.70;99.90
